Time;durP1;ratioP1;P1;durP2;ratioP2;P2;SDS_P1;SDS_P2;PMS_P1;PMS_P2;Temp;Humidity;BMP_temperature;BMP_pressure;BME280_temperature;BME280_humidity;BME280_pressure;Samples;Min_cycle;Max_cycle;Signal;HPM_P1;HPM_P2
2023/04/23 00:02:10;;;;;;;;;5.67;5.00;;;;;18.55;82.72;100412.88;5079360;28;45568;-79
2023/04/23 00:04:37;;;;;;;;;3.33;2.33;;;;;18.46;82.90;100408.94;5079731;28;45478;-79
2023/04/23 00:07:03;;;;;;;;;4.33;2.67;;;;;18.31;82.82;100393.28;5079634;28;45635;-78
2023/04/23 00:09:33;;;;;;;;;6.00;5.00;;;;;18.18;83.45;100389.75;5079801;28;45264;-79
2023/04/23 00:12:00;;;;;;;;;3.67;3.67;;;;;18.23;83.21;100405.19;5079527;28;45316;-79
2023/04/23 00:14:26;;;;;;;;;2.33;2.33;;;;;18.00;84.14;100374.50;5079731;28;45453;-79
2023/04/23 00:16:52;;;;;;;;;2.33;2.33;;;;;18.12;83.90;100399.56;5079492;28;45368;-79
2023/04/23 00:19:17;;;;;;;;;3.67;2.00;;;;;17.97;84.35;100394.63;5078728;28;45337;-80
2023/04/23 00:21:44;;;;;;;;;3.00;3.00;;;;;18.03;85.37;100403.63;5079739;28;45244;-79
2023/04/23 00:24:09;;;;;;;;;3.33;3.33;;;;;17.97;84.96;100391.94;5079622;28;45458;-79
2023/04/23 00:26:34;;;;;;;;;2.67;2.67;;;;;17.96;84.80;100409.09;5079504;28;46059;-80
2023/04/23 00:29:00;;;;;;;;;3.00;3.00;;;;;17.92;84.63;100397.19;5079224;28;45245;-80
2023/04/23 00:31:26;;;;;;;;;3.00;3.00;;;;;17.90;84.74;100396.59;5079558;28;45403;-79
2023/04/23 00:33:52;;;;;;;;;3.00;3.00;;;;;17.91;84.69;100400.94;5079617;28;45303;-79
2023/04/23 00:36:18;;;;;;;;;3.00;3.00;;;;;17.89;84.74;100400.31;5079276;28;45504;-79
2023/04/23 00:38:43;;;;;;;;;4.00;2.00;;;;;17.78;84.70;100391.22;5078961;28;45272;-79
2023/04/23 00:41:09;;;;;;;;;4.00;4.00;;;;;17.72;84.78;100384.88;5079443;28;45268;-79
2023/04/23 00:43:35;;;;;;;;;5.67;4.33;;;;;17.73;85.07;100396.44;5079152;28;45326;-79
2023/04/23 00:46:01;;;;;;;;;5.00;5.00;;;;;17.70;85.90;100395.06;5079094;28;46489;-79
2023/04/23 00:48:27;;;;;;;;;5.00;4.00;;;;;17.52;85.56;100377.97;5060906;28;46096;-79
2023/04/23 00:51:02;;;;;;;;;5.00;5.00;;;;;17.63;85.27;100391.66;5079311;28;45232;-79
2023/04/23 00:53:28;;;;;;;;;5.00;5.00;;;;;17.46;86.13;100373.50;5079240;28;45315;-79
2023/04/23 00:55:53;;;;;;;;;4.33;4.00;;;;;17.44;86.40;100375.59;5060621;28;46660;-79
2023/04/23 00:58:19;;;;;;;;;5.00;5.00;;;;;17.49;86.64;100388.34;5079041;28;45407;-79
2023/04/23 01:00:47;;;;;;;;;4.00;4.00;;;;;17.29;87.17;100368.78;5079324;28;45335;-79
2023/04/23 01:03:17;;;;;;;;;7.33;6.00;;;;;17.42;87.88;100399.19;5079139;28;45334;-79
2023/04/23 01:05:42;;;;;;;;;4.33;4.33;;;;;17.36;88.57;100378.59;5078827;28;46002;-79
2023/04/23 01:08:13;;;;;;;;;6.67;6.00;;;;;17.34;88.86;100372.63;5079138;28;45233;-79
2023/04/23 01:10:39;;;;;;;;;5.00;5.00;;;;;17.31;89.42;100357.81;5079253;28;45293;-79
2023/04/23 01:13:05;;;;;;;;;6.00;6.00;;;;;17.28;89.56;100366.31;5081308;28;45317;-80
2023/04/23 01:15:30;;;;;;;;;6.00;5.33;;;;;17.35;89.47;100369.72;5062613;28;48377;-80
2023/04/23 01:17:57;;;;;;;;;7.00;7.00;;;;;17.35;90.22;100379.63;5082398;28;45245;-80
2023/04/23 01:20:22;;;;;;;;;6.33;6.00;;;;;17.24;90.51;100363.25;5063907;28;45369;-79
2023/04/23 01:22:48;;;;;;;;;7.67;7.67;;;;;17.29;90.27;100376.84;5082274;28;45259;-79
2023/04/23 01:25:13;;;;;;;;;6.33;5.67;;;;;17.38;90.58;100376.50;5082182;28;45161;-79
2023/04/23 01:27:40;;;;;;;;;5.67;5.67;;;;;17.38;90.79;100371.94;5082212;28;45359;-80
2023/04/23 01:30:07;;;;;;;;;4.67;4.00;;;;;17.34;90.43;100381.53;5097458;27;45329;-79
2023/04/23 01:32:33;;;;;;;;;4.00;4.00;;;;;17.29;90.56;100366.09;5102445;27;45481;-80
2023/04/23 01:34:59;;;;;;;;;4.00;4.00;;;;;17.28;89.86;100372.50;5083384;27;46375;-80
2023/04/23 01:37:25;;;;;;;;;7.33;5.67;;;;;17.11;90.43;100350.00;5081419;28;45354;-80
2023/04/23 01:39:51;;;;;;;;;4.67;4.67;;;;;17.24;90.48;100371.31;5082193;28;45267;-79
2023/04/23 01:42:16;;;;;;;;;7.33;5.67;;;;;17.17;90.35;100359.84;5081787;28;45433;-80
2023/04/23 01:44:41;;;;;;;;;6.00;6.00;;;;;17.10;90.89;100343.00;5081967;28;46006;-79
2023/04/23 01:47:07;;;;;;;;;5.00;5.00;;;;;17.07;91.34;100349.66;5081937;28;45225;-80
2023/04/23 01:49:32;;;;;;;;;6.00;5.00;;;;;17.18;91.16;100361.47;5082097;28;45457;-79
2023/04/23 01:51:58;;;;;;;;;5.00;5.00;;;;;17.16;90.87;100363.59;5081845;28;45446;-80
2023/04/23 01:54:23;;;;;;;;;6.00;6.00;;;;;17.08;91.34;100355.84;5081582;28;46219;-79
2023/04/23 01:56:53;;;;;;;;;6.67;5.67;;;;;17.06;91.53;100364.09;5063232;28;45262;-79
2023/04/23 01:59:19;;;;;;;;;5.33;5.33;;;;;16.91;91.36;100338.47;5081906;28;45264;-79
2023/04/23 02:01:45;;;;;;;;;4.67;4.67;;;;;17.03;92.15;100360.00;5063354;28;45536;-80
2023/04/23 02:04:12;;;;;;;;;9.00;7.33;;;;;17.05;91.17;100349.03;5081451;28;45359;-79
2023/04/23 02:06:38;;;;;;;;;4.33;3.33;;;;;16.98;91.01;100330.34;5081604;28;45353;-79
2023/04/23 02:09:04;;;;;;;;;5.00;5.00;;;;;16.95;91.99;100329.97;5081748;28;45308;-79
2023/04/23 02:11:29;;;;;;;;;4.33;4.33;;;;;16.98;92.32;100349.13;5081377;28;45289;-79
2023/04/23 02:13:55;;;;;;;;;4.33;4.33;;;;;16.79;91.55;100324.16;5081340;28;45647;-79
2023/04/23 02:16:23;;;;;;;;;8.67;5.00;;;;;16.90;91.25;100341.38;5063048;28;45434;-80
2023/04/23 02:18:48;;;;;;;;;5.00;5.00;;;;;16.91;91.10;100329.59;5081603;28;45299;-80
2023/04/23 02:21:14;;;;;;;;;6.33;6.33;;;;;16.90;91.28;100338.69;5081237;28;45335;-80
2023/04/23 02:23:39;;;;;;;;;4.33;4.33;;;;;16.89;92.22;100343.25;5080475;28;45317;-79
2023/04/23 02:26:04;;;;;;;;;5.00;4.00;;;;;16.77;92.24;100342.38;5063074;28;45395;-79
2023/04/23 02:28:30;;;;;;;;;4.33;4.33;;;;;16.69;92.17;100329.25;5081090;28;45777;-80
2023/04/23 02:30:56;;;;;;;;;7.33;5.67;;;;;16.59;92.10;100319.88;5081166;28;45441;-80
2023/04/23 02:33:21;;;;;;;;;6.00;4.67;;;;;16.63;92.26;100328.28;5081126;28;45535;-79
2023/04/23 02:35:46;;;;;;;;;5.33;5.33;;;;;16.65;92.67;100350.34;5081058;28;45284;-79
2023/04/23 02:38:12;;;;;;;;;5.00;5.00;;;;;16.59;93.56;100344.03;5081108;28;45524;-79
2023/04/23 02:40:37;;;;;;;;;8.00;6.00;;;;;16.58;93.34;100341.56;5081041;28;45217;-80
2023/04/23 02:43:02;;;;;;;;;5.33;5.33;;;;;16.59;93.40;100345.88;5080783;28;46081;-80
2023/04/23 02:45:28;;;;;;;;;5.67;5.67;;;;;16.52;93.10;100349.47;5081085;28;45362;-80
2023/04/23 02:47:53;;;;;;;;;5.33;5.33;;;;;16.53;93.65;100361.81;5080806;28;45360;-78
2023/04/23 02:50:19;;;;;;;;;5.67;5.67;;;;;16.52;93.67;100352.16;5080878;28;45435;-79
2023/04/23 02:52:45;;;;;;;;;6.67;6.00;;;;;16.48;92.61;100348.28;5080875;28;45304;-80
2023/04/23 02:55:10;;;;;;;;;4.33;4.33;;;;;16.46;93.60;100350.34;5080931;28;45332;-79
2023/04/23 02:57:36;;;;;;;;;5.33;5.33;;;;;16.43;94.34;100344.63;5080748;28;45273;-79
2023/04/23 03:00:05;;;;;;;;;7.33;7.33;;;;;16.26;94.30;100329.13;5080820;28;45332;-79
2023/04/23 03:02:30;;;;;;;;;7.00;7.00;;;;;16.24;94.37;100340.06;5080544;28;45339;-80
2023/04/23 03:04:56;;;;;;;;;5.33;4.67;;;;;16.21;94.58;100321.75;5080455;28;45280;-79
2023/04/23 03:07:21;;;;;;;;;6.00;5.67;;;;;16.27;93.76;100333.44;5080755;28;45342;-79
2023/04/23 03:09:46;;;;;;;;;5.33;4.67;;;;;16.15;93.92;100323.44;5080640;28;45557;-79
2023/04/23 03:12:11;;;;;;;;;4.33;4.33;;;;;16.16;94.59;100332.28;5080307;28;45444;-79
2023/04/23 03:14:37;;;;;;;;;5.00;4.00;;;;;16.14;93.96;100329.03;5080944;28;45447;-79
2023/04/23 03:17:02;;;;;;;;;5.00;5.00;;;;;16.05;94.50;100319.63;5080672;28;45211;-80
2023/04/23 03:19:28;;;;;;;;;6.33;5.00;;;;;16.05;94.45;100308.91;5080560;28;45473;-79
2023/04/23 03:21:53;;;;;;;;;4.00;3.00;;;;;16.10;94.47;100325.16;5080329;28;45358;-79
2023/04/23 03:24:19;;;;;;;;;7.00;7.00;;;;;15.99;94.83;100313.31;5080515;28;45268;-79
2023/04/23 03:26:44;;;;;;;;;5.67;4.67;;;;;15.99;93.77;100298.06;5080427;28;45262;-79
2023/04/23 03:29:09;;;;;;;;;4.67;4.67;;;;;15.96;94.62;100311.88;5080279;28;45331;-79
2023/04/23 03:31:35;;;;;;;;;4.00;4.00;;;;;15.93;95.12;100296.22;5079991;28;45822;-79
2023/04/23 03:34:00;;;;;;;;;5.00;3.33;;;;;15.96;95.13;100305.66;5080392;28;45326;-79
2023/04/23 03:36:25;;;;;;;;;4.67;4.67;;;;;15.91;95.95;100306.31;5080291;28;45323;-79
2023/04/23 03:38:51;;;;;;;;;7.00;4.67;;;;;15.82;95.40;100296.94;5080196;28;45256;-79
2023/04/23 03:41:16;;;;;;;;;5.00;5.00;;;;;15.81;95.52;100304.16;5079938;28;45319;-79
2023/04/23 03:43:42;;;;;;;;;5.67;4.00;;;;;15.68;95.85;100277.50;5080082;28;45343;-79
2023/04/23 03:46:07;;;;;;;;;4.67;4.67;;;;;15.82;95.70;100287.03;5080117;28;45344;-80
2023/04/23 03:48:32;;;;;;;;;5.00;3.00;;;;;15.80;95.50;100288.31;5080078;28;45421;-79
2023/04/23 03:50:58;;;;;;;;;4.67;4.00;;;;;15.76;96.00;100286.06;5079910;28;45401;-79
2023/04/23 03:53:23;;;;;;;;;4.00;4.00;;;;;15.73;95.82;100280.31;5080139;28;45308;-79
2023/04/23 03:55:48;;;;;;;;;4.33;4.33;;;;;15.65;95.88;100276.06;5080301;28;45299;-80
2023/04/23 03:58:14;;;;;;;;;5.00;4.00;;;;;15.70;96.29;100289.63;5079605;28;46794;-79
2023/04/23 04:00:39;;;;;;;;;4.67;4.00;;;;;15.69;96.56;100279.94;5079854;28;46477;-79
2023/04/23 04:03:05;;;;;;;;;3.00;2.00;;;;;15.69;96.32;100282.63;5079895;28;45271;-79
2023/04/23 04:05:30;;;;;;;;;7.00;5.00;;;;;15.77;96.65;100285.03;5079937;28;45284;-79
2023/04/23 04:07:56;;;;;;;;;3.00;3.00;;;;;15.73;96.81;100294.53;5079772;28;45359;-80
2023/04/23 04:10:21;;;;;;;;;3.00;3.00;;;;;15.73;96.48;100286.50;5079906;28;46012;-79
2023/04/23 04:12:47;;;;;;;;;3.33;3.33;;;;;15.69;96.56;100287.16;5079583;28;45324;-79
2023/04/23 04:15:13;;;;;;;;;2.33;2.33;;;;;15.65;97.14;100286.75;5080289;28;45631;-80
2023/04/23 04:17:39;;;;;;;;;3.33;3.33;;;;;15.72;97.45;100292.91;5079698;28;45310;-79
2023/04/23 04:20:10;;;;;;;;;3.00;3.00;;;;;15.61;97.32;100283.72;5079584;28;45623;-79
2023/04/23 04:22:35;;;;;;;;;3.00;3.00;;;;;15.71;97.75;100291.25;5079611;28;45350;-80
2023/04/23 04:25:00;;;;;;;;;5.00;4.00;;;;;15.77;97.12;100300.25;5079772;28;45339;-79
2023/04/23 04:27:26;;;;;;;;;5.00;3.67;;;;;15.75;97.55;100294.31;5079502;28;45403;-79
2023/04/23 04:29:51;;;;;;;;;4.00;4.00;;;;;15.81;97.89;100284.56;5092694;27;45414;-79
2023/04/23 04:32:17;;;;;;;;;4.67;4.67;;;;;15.82;96.54;100276.31;5099750;27;45227;-80
2023/04/23 04:34:42;;;;;;;;;6.00;4.00;;;;;15.78;97.42;100277.81;5100766;27;45568;-80
2023/04/23 04:37:08;;;;;;;;;4.00;4.00;;;;;15.82;97.60;100276.31;5100301;27;45287;-80
2023/04/23 04:39:34;;;;;;;;;5.00;3.00;;;;;15.74;97.74;100266.69;5100165;27;45327;-80
2023/04/23 04:42:01;;;;;;;;;4.00;3.00;;;;;15.70;97.69;100270.88;5099783;27;45331;-80
2023/04/23 04:44:27;;;;;;;;;3.00;3.00;;;;;15.64;97.46;100267.22;5100207;27;45361;-81
2023/04/23 04:46:52;;;;;;;;;3.00;3.00;;;;;15.61;98.29;100253.44;5100446;27;45323;-79
2023/04/23 04:49:18;;;;;;;;;5.33;4.00;;;;;15.70;98.08;100262.84;5103337;27;46316;-79
2023/04/23 04:51:43;;;;;;;;;3.67;3.67;;;;;15.70;98.11;100257.47;5103171;27;45306;-80
2023/04/23 04:54:09;;;;;;;;;3.33;3.33;;;;;15.73;97.95;100257.03;5103522;27;45280;-79
2023/04/23 04:56:34;;;;;;;;;4.00;4.00;;;;;15.71;98.35;100256.44;5102863;27;45342;-80
2023/04/23 04:58:59;;;;;;;;;5.00;3.67;;;;;15.67;97.78;100247.19;5103359;27;45318;-80
2023/04/23 05:01:27;;;;;;;;;5.33;4.33;;;;;15.71;97.90;100255.63;5091679;27;45279;-80
2023/04/23 05:03:53;;;;;;;;;5.00;5.00;;;;;15.72;98.03;100258.09;5082947;28;45331;-80
2023/04/23 05:06:19;;;;;;;;;3.00;3.00;;;;;15.78;98.33;100259.84;5082492;28;45335;-80
2023/04/23 05:08:47;;;;;;;;;5.33;5.33;;;;;15.70;98.04;100244.06;5082467;28;45236;-79
2023/04/23 05:11:14;;;;;;;;;2.67;2.00;;;;;15.85;98.72;100265.16;5082793;28;45294;-80
2023/04/23 05:13:40;;;;;;;;;5.00;5.00;;;;;15.85;99.20;100254.44;5082570;28;45327;-80
2023/04/23 05:16:05;;;;;;;;;6.00;5.00;;;;;15.90;99.51;100253.78;5082677;28;45327;-80
2023/04/23 05:18:30;;;;;;;;;4.67;4.67;;;;;15.98;99.63;100247.34;5082258;28;45459;-80
2023/04/23 05:20:56;;;;;;;;;5.00;4.00;;;;;16.13;99.21;100250.47;5083003;28;45321;-80
2023/04/23 05:23:21;;;;;;;;;4.67;4.67;;;;;16.21;99.65;100249.34;5082132;28;45279;-80
2023/04/23 05:25:46;;;;;;;;;5.00;5.00;;;;;16.16;99.95;100235.78;5082475;28;45394;-80
2023/04/23 05:28:12;;;;;;;;;6.00;6.00;;;;;16.32;99.66;100252.31;5083200;28;45260;-80
2023/04/23 05:30:37;;;;;;;;;5.00;5.00;;;;;16.36;99.57;100243.63;5082910;28;45455;-80
2023/04/23 05:33:03;;;;;;;;;4.00;4.00;;;;;16.38;99.53;100241.50;5081630;28;45200;-83
2023/04/23 05:35:28;;;;;;;;;5.00;5.00;;;;;16.28;99.44;100220.59;5081039;28;46740;-81
2023/04/23 05:37:53;;;;;;;;;5.00;4.00;;;;;16.46;98.71;100240.38;5082706;28;45318;-81
2023/04/23 05:40:18;;;;;;;;;5.67;5.00;;;;;16.58;98.13;100253.84;5082174;28;45222;-80
2023/04/23 05:42:44;;;;;;;;;5.33;5.33;;;;;16.58;98.44;100245.00;5081872;28;45279;-81
2023/04/23 05:45:10;;;;;;;;;4.67;4.67;;;;;16.64;98.21;100254.84;5082167;28;45327;-80
2023/04/23 05:47:35;;;;;;;;;6.00;5.00;;;;;16.62;98.68;100246.19;5081433;28;45624;-81
2023/04/23 05:50:01;;;;;;;;;6.00;5.00;;;;;16.72;97.76;100249.13;5082102;28;45334;-81
2023/04/23 05:52:29;;;;;;;;;6.00;5.33;;;;;16.72;98.65;100242.94;5081832;28;45291;-81
2023/04/23 05:54:54;;;;;;;;;4.33;4.33;;;;;16.74;97.95;100233.63;5081446;28;45401;-81
2023/04/23 05:57:20;;;;;;;;;4.67;4.67;;;;;16.86;98.37;100232.84;5081481;28;45331;-80
2023/04/23 05:59:45;;;;;;;;;5.33;4.00;;;;;16.83;97.02;100214.53;5080463;28;45426;-79
2023/04/23 06:02:10;;;;;;;;;8.00;6.00;;;;;16.93;97.95;100217.47;5083160;28;45296;-84
2023/04/23 06:04:36;;;;;;;;;5.33;5.33;;;;;16.95;97.80;100206.50;5083704;28;45294;-82
2023/04/23 06:07:02;;;;;;;;;4.00;4.00;;;;;16.96;97.91;100203.59;5064930;28;47003;-83
2023/04/23 06:09:27;;;;;;;;;7.00;6.00;;;;;17.15;97.14;100223.13;5079394;28;45419;-81
2023/04/23 06:11:53;;;;;;;;;4.33;4.33;;;;;17.12;97.68;100210.19;5081011;28;45296;-82
2023/04/23 06:14:19;;;;;;;;;4.00;4.00;;;;;17.08;97.65;100192.06;5075548;28;45424;-81
2023/04/23 06:16:45;;;;;;;;;6.00;5.00;;;;;17.24;97.41;100207.50;5079532;27;45980;-80
2023/04/23 06:19:10;;;;;;;;;5.67;5.00;;;;;17.32;97.69;100209.03;5060540;28;45484;-81
2023/04/23 06:21:36;;;;;;;;;5.00;5.00;;;;;17.24;97.28;100196.75;5081530;28;45441;-83
2023/04/23 06:24:01;;;;;;;;;5.00;5.00;;;;;17.37;97.04;100213.72;5080958;28;45416;-79
2023/04/23 06:26:26;;;;;;;;;5.00;5.00;;;;;17.41;97.86;100212.19;5080957;28;45230;-79
2023/04/23 06:28:52;;;;;;;;;6.67;4.00;;;;;17.43;96.72;100207.41;5080516;28;45430;-78
2023/04/23 06:31:18;;;;;;;;;5.00;5.00;;;;;17.32;96.58;100192.91;5080572;28;45200;-78
2023/04/23 06:33:43;;;;;;;;;5.00;3.00;;;;;17.43;96.63;100207.41;5080438;28;45246;-77
2023/04/23 06:36:09;;;;;;;;;4.33;3.33;;;;;17.46;97.06;100214.19;5082502;28;46096;-78
2023/04/23 06:38:35;;;;;;;;;4.00;4.00;;;;;17.53;97.09;100204.13;5081272;28;45303;-79
2023/04/23 06:41:01;;;;;;;;;5.00;5.00;;;;;17.58;97.90;100208.81;5087036;28;45255;-78
2023/04/23 06:43:26;;;;;;;;;4.33;3.33;;;;;17.47;97.01;100181.72;5087481;28;45212;-78
2023/04/23 06:45:52;;;;;;;;;6.00;5.00;;;;;17.66;96.95;100203.09;5080746;27;47427;-77
2023/04/23 06:48:17;;;;;;;;;6.00;4.67;;;;;17.62;97.67;100183.09;5081240;28;45396;-77
2023/04/23 06:50:43;;;;;;;;;6.33;5.33;;;;;17.61;98.67;100187.69;5086588;28;45145;-78
2023/04/23 06:53:09;;;;;;;;;2.00;1.00;;;;;17.62;99.15;100178.56;5084184;28;45186;-75
2023/04/23 06:55:34;;;;;;;;;5.00;5.00;;;;;17.68;97.87;100190.22;5084770;28;46177;-76
2023/04/23 06:58:00;;;;;;;;;5.67;5.00;;;;;17.67;99.42;100191.28;5080637;28;45201;-75
2023/04/23 07:00:26;;;;;;;;;6.33;6.00;;;;;17.76;99.85;100203.31;5080945;28;45283;-75
2023/04/23 07:02:51;;;;;;;;;5.00;5.00;;;;;17.79;99.25;100172.47;5079760;28;45391;-76
2023/04/23 07:05:17;;;;;;;;;6.67;6.67;;;;;17.87;99.22;100185.53;5079880;28;45593;-75
2023/04/23 07:07:43;;;;;;;;;8.00;7.33;;;;;17.85;99.92;100184.97;5080838;28;45339;-75
2023/04/23 07:10:10;;;;;;;;;6.00;6.00;;;;;17.98;100.00;100200.00;5080371;28;45372;-74
2023/04/23 07:12:37;;;;;;;;;5.00;5.00;;;;;17.89;99.53;100186.13;5080515;28;45266;-74
2023/04/23 07:15:03;;;;;;;;;7.00;6.33;;;;;17.90;100.00;100187.75;5080362;28;45264;-74
2023/04/23 07:17:28;;;;;;;;;6.67;6.67;;;;;17.76;99.35;100170.25;5080419;28;45387;-75
2023/04/23 07:19:54;;;;;;;;;8.00;8.00;;;;;17.83;100.00;100175.47;5060998;28;45338;-75
2023/04/23 07:22:19;;;;;;;;;8.00;8.00;;;;;17.85;100.00;100174.22;5078743;28;45972;-74
2023/04/23 07:24:45;;;;;;;;;6.00;6.00;;;;;17.78;100.00;100168.94;5079416;28;45423;-75
2023/04/23 07:27:10;;;;;;;;;6.33;6.33;;;;;17.89;100.00;100167.28;5079480;28;45300;-75
2023/04/23 07:29:35;;;;;;;;;10.33;10.33;;;;;17.95;100.00;100180.81;5078970;28;45359;-75
2023/04/23 07:32:01;;;;;;;;;8.00;6.00;;;;;17.89;100.00;100171.84;5080078;28;45324;-77
2023/04/23 07:34:26;;;;;;;;;5.00;5.00;;;;;17.99;100.00;100177.44;5061252;28;46292;-75
2023/04/23 07:36:51;;;;;;;;;7.33;7.00;;;;;17.88;100.00;100162.97;5080464;28;45220;-74
2023/04/23 07:39:17;;;;;;;;;10.00;8.00;;;;;17.96;100.00;100185.97;5079711;28;45204;-75
2023/04/23 07:41:42;;;;;;;;;8.00;8.00;;;;;17.92;100.00;100180.25;5079694;28;45302;-75
2023/04/23 07:44:08;;;;;;;;;9.00;8.33;;;;;17.87;100.00;100180.13;5079914;28;45388;-75
2023/04/23 07:46:33;;;;;;;;;8.67;8.67;;;;;17.81;100.00;100164.16;5078770;28;45539;-75
2023/04/23 07:48:58;;;;;;;;;8.00;8.00;;;;;17.84;100.00;100169.88;5079769;28;45345;-76
2023/04/23 07:51:25;;;;;;;;;9.33;9.00;;;;;17.85;100.00;100159.94;5079934;28;45322;-75
2023/04/23 07:53:55;;;;;;;;;9.00;8.00;;;;;17.82;100.00;100152.34;5061822;28;47423;-75
2023/04/23 07:56:21;;;;;;;;;8.33;8.33;;;;;17.83;100.00;100167.41;5079204;28;45237;-75
2023/04/23 07:58:47;;;;;;;;;6.67;6.33;;;;;17.79;100.00;100154.47;5079927;28;45307;-75
2023/04/23 08:01:12;;;;;;;;;9.33;8.00;;;;;17.73;100.00;100130.41;5079901;28;45743;-75
2023/04/23 08:03:38;;;;;;;;;10.33;9.33;;;;;17.84;100.00;100147.56;5079750;28;45357;-75
2023/04/23 08:06:03;;;;;;;;;9.50;9.50;;;;;17.90;100.00;100143.94;5079765;28;45303;-75
2023/04/23 08:08:29;;;;;;;;;8.67;8.67;;;;;17.99;100.00;100150.53;5080115;28;45362;-75
2023/04/23 08:10:54;;;;;;;;;8.67;8.00;;;;;17.98;100.00;100137.34;5079848;28;45365;-76
2023/04/23 08:13:20;;;;;;;;;11.33;10.67;;;;;18.20;100.00;100148.31;5079396;28;45338;-76
2023/04/23 08:15:45;;;;;;;;;10.00;10.00;;;;;18.23;100.00;100158.56;5079715;28;45316;-76
2023/04/23 08:18:10;;;;;;;;;9.00;9.00;;;;;18.24;100.00;100137.88;5079845;28;45581;-76
2023/04/23 08:20:36;;;;;;;;;7.00;7.00;;;;;18.31;100.00;100135.06;5079594;28;45337;-77
2023/04/23 08:23:02;;;;;;;;;10.33;10.00;;;;;18.28;100.00;100117.50;5082445;28;45440;-79
2023/04/23 08:25:28;;;;;;;;;10.33;10.33;;;;;18.46;100.00;100119.16;5085114;28;45228;-78
2023/04/23 08:27:53;;;;;;;;;8.00;8.00;;;;;18.42;100.00;100104.56;5070076;28;45840;-79
2023/04/23 08:30:19;;;;;;;;;11.67;10.00;;;;;18.48;100.00;100103.59;5075453;28;45445;-80
2023/04/23 08:32:48;;;;;;;;;12.00;10.00;;;;;18.60;100.00;100116.16;5083094;28;46187;-77
2023/04/23 08:35:13;;;;;;;;;7.00;7.00;;;;;18.57;100.00;100098.66;5065376;28;45442;-79
2023/04/23 08:37:39;;;;;;;;;10.00;10.00;;;;;18.75;100.00;100100.28;5082942;28;45469;-79
2023/04/23 08:40:06;;;;;;;;;9.33;9.33;;;;;18.73;100.00;100067.41;5082764;28;45411;-79
2023/04/23 08:42:52;;;;;;;;;9.00;7.33;;;;;18.87;100.00;100069.75;5084950;28;46058;-77
2023/04/23 08:45:18;;;;;;;;;11.00;9.33;;;;;18.77;100.00;100044.31;5075063;27;45543;-74
2023/04/23 08:47:44;;;;;;;;;8.33;8.33;;;;;18.97;100.00;100061.03;5080203;28;45374;-77
2023/04/23 08:50:18;;;;;;;;;12.00;11.33;;;;;18.98;100.00;100055.41;5077346;28;45240;-78
2023/04/23 08:52:52;;;;;;;;;9.67;9.67;;;;;18.96;100.00;100027.91;5064717;28;46026;-77
2023/04/23 08:55:18;;;;;;;;;11.67;11.00;;;;;19.10;100.00;100027.56;5084680;28;45474;-78
2023/04/23 08:57:45;;;;;;;;;10.33;9.00;;;;;19.15;100.00;100033.00;5084713;28;45281;-78
2023/04/23 09:00:12;;;;;;;;;9.33;9.33;;;;;19.12;100.00;100034.34;5083857;28;45337;-78
2023/04/23 09:02:43;;;;;;;;;9.00;9.00;;;;;19.01;100.00;100014.50;5082418;28;45379;-78
2023/04/23 09:05:08;;;;;;;;;8.33;7.67;;;;;19.15;100.00;100030.31;5061155;28;45311;-78
2023/04/23 09:07:35;;;;;;;;;10.67;10.67;;;;;18.99;100.00;100003.19;5062475;28;45376;-78
2023/04/23 09:10:05;;;;;;;;;9.33;9.33;;;;;18.98;100.00;100001.56;5062984;28;45367;-78
2023/04/23 09:12:31;;;;;;;;;8.33;8.33;;;;;18.96;100.00;99992.91;5056919;28;48759;-77
2023/04/23 09:14:57;;;;;;;;;8.67;8.33;;;;;19.03;100.00;99992.72;5072120;28;45355;-77
2023/04/23 09:17:27;;;;;;;;;11.00;11.00;;;;;19.09;100.00;99986.34;5062698;28;45399;-77
2023/04/23 09:19:53;;;;;;;;;10.00;9.00;;;;;19.16;100.00;99978.09;5078310;28;45495;-77
2023/04/23 09:22:42;;;;;;;;;12.33;9.00;;;;;19.35;100.00;99970.50;5083659;27;45352;-77
2023/04/23 09:25:09;;;;;;;;;10.67;10.67;;;;;19.42;100.00;99948.75;5083975;27;45341;-78
2023/04/23 09:27:35;;;;;;;;;11.00;9.67;;;;;19.58;100.00;99951.63;5081864;28;45348;-80
2023/04/23 09:30:03;;;;;;;;;9.33;9.33;;;;;19.73;100.00;99953.66;5081858;28;45425;-76
2023/04/23 09:32:40;;;;;;;;;11.67;11.67;;;;;19.87;100.00;99957.56;5082667;28;45437;-77
2023/04/23 09:35:09;;;;;;;;;9.00;9.00;;;;;19.84;100.00;99923.00;5083161;28;45466;-77
2023/04/23 09:37:35;;;;;;;;;10.00;10.00;;;;;19.74;100.00;99901.34;5083627;28;45406;-78
2023/04/23 09:40:08;;;;;;;;;6.33;6.00;;;;;19.91;100.00;99918.22;5082855;28;45289;-76
2023/04/23 09:42:35;;;;;;;;;11.67;10.00;;;;;20.02;100.00;99934.53;5080929;28;45347;-76
2023/04/23 09:45:06;;;;;;;;;35.67;33.00;;;;;20.03;100.00;99907.28;5082216;28;45437;-78
2023/04/23 09:47:37;;;;;;;;;18.67;17.00;;;;;19.98;100.00;99888.34;5081804;27;45477;-79
2023/04/23 09:50:03;;;;;;;;;12.00;12.00;;;;;20.07;100.00;99896.81;5084548;28;45509;-78
2023/04/23 09:52:32;;;;;;;;;14.00;12.33;;;;;20.03;100.00;99893.00;5083531;28;46012;-78
2023/04/23 09:55:01;;;;;;;;;13.00;13.00;;;;;20.01;100.00;99898.66;5089510;28;45338;-77
2023/04/23 09:57:26;;;;;;;;;10.67;10.67;;;;;20.00;100.00;99894.31;5086767;28;45394;-77
2023/04/23 09:59:52;;;;;;;;;14.00;13.00;;;;;19.93;100.00;99883.72;5068059;28;45978;-77
2023/04/23 10:02:18;;;;;;;;;12.67;11.00;;;;;19.93;100.00;99872.94;5089645;28;45368;-77
2023/04/23 10:04:50;;;;;;;;;12.33;12.00;;;;;20.00;100.00;99866.53;5085121;28;45355;-77
2023/04/23 10:07:16;;;;;;;;;14.00;14.00;;;;;19.98;100.00;99869.47;5083127;28;45484;-79
2023/04/23 10:09:42;;;;;;;;;14.67;14.67;;;;;19.89;100.00;99852.16;5063951;28;45489;-80
2023/04/23 10:12:09;;;;;;;;;14.00;14.00;;;;;19.96;100.00;99839.25;5082246;28;45579;-79
2023/04/23 10:14:36;;;;;;;;;13.67;13.67;;;;;20.05;100.00;99859.31;5082730;28;45422;-79
2023/04/23 10:17:03;;;;;;;;;11.67;11.67;;;;;20.00;100.00;99853.88;5082273;28;45344;-79
2023/04/23 10:19:29;;;;;;;;;13.00;10.00;;;;;19.99;100.00;99857.59;5085037;28;45267;-79
2023/04/23 10:22:03;;;;;;;;;14.00;14.00;;;;;20.04;100.00;99863.09;5081459;28;45760;-80
2023/04/23 10:24:31;;;;;;;;;10.33;10.33;;;;;19.96;100.00;99850.03;5076386;28;45500;-79
2023/04/23 10:26:59;;;;;;;;;10.33;10.00;;;;;19.99;100.00;99833.34;5082982;28;45300;-79
2023/04/23 10:29:30;;;;;;;;;10.33;10.33;;;;;19.96;100.00;99824.97;5090990;27;45382;-78
2023/04/23 10:32:14;;;;;;;;;9.67;9.67;;;;;19.95;100.00;99826.84;5101125;27;46059;-78
2023/04/23 10:34:41;;;;;;;;;9.33;9.33;;;;;19.90;100.00;99834.88;5082539;27;45299;-79
2023/04/23 10:37:07;;;;;;;;;10.00;8.00;;;;;19.76;100.00;99824.59;5101698;27;45351;-80
2023/04/23 10:39:34;;;;;;;;;7.33;7.33;;;;;19.71;100.00;99827.22;5101579;27;45291;-78
2023/04/23 10:42:01;;;;;;;;;8.67;8.67;;;;;19.61;100.00;99814.50;5081860;27;46072;-79
2023/04/23 10:44:36;;;;;;;;;10.67;9.00;;;;;19.68;100.00;99825.88;5085157;28;45368;-79
2023/04/23 10:47:03;;;;;;;;;11.33;11.00;;;;;19.69;100.00;99813.19;5080742;28;45293;-80
2023/04/23 10:49:33;;;;;;;;;10.00;10.00;;;;;19.77;100.00;99814.59;5080578;28;45624;-80
2023/04/23 10:52:07;;;;;;;;;11.33;11.33;;;;;19.87;100.00;99795.78;5080739;28;45315;-78
2023/04/23 10:54:33;;;;;;;;;10.00;9.00;;;;;19.99;100.00;99805.59;5075528;28;45248;-80
2023/04/23 10:57:09;;;;;;;;;9.33;9.00;;;;;20.17;100.00;99801.66;5075882;28;45472;-77
2023/04/23 10:59:39;;;;;;;;;10.00;10.00;;;;;20.18;100.00;99790.59;5078368;28;45419;-79
2023/04/23 11:02:13;;;;;;;;;13.67;13.33;;;;;20.27;100.00;99804.44;5058955;28;46314;-77
2023/04/23 11:04:45;;;;;;;;;10.00;10.00;;;;;20.31;100.00;99786.63;5082510;28;45385;-78
2023/04/23 11:07:12;;;;;;;;;7.00;7.00;;;;;20.54;100.00;99779.16;5081623;28;45466;-78
2023/04/23 11:09:44;;;;;;;;;11.33;10.67;;;;;20.81;100.00;99778.13;5081298;28;45323;-78
2023/04/23 11:12:30;;;;;;;;;8.67;7.67;;;;;20.94;100.00;99760.66;5081092;28;45356;-78
2023/04/23 11:15:00;;;;;;;;;7.33;7.33;;;;;21.10;100.00;99749.06;5081413;28;45387;-78
2023/04/23 11:17:31;;;;;;;;;8.00;8.00;;;;;21.28;100.00;99751.22;5080929;28;45283;-78
2023/04/23 11:20:15;;;;;;;;;5.00;5.00;;;;;21.41;98.99;99738.25;5081781;28;45430;-77